createdAt,value
2023-11-26T00:01:20.687Z,96955.72
2023-11-26T00:03:52.847Z,96954.33
2023-11-26T00:06:25.992Z,96959.15
2023-11-26T00:08:58.072Z,96965.80
2023-11-26T00:11:29.894Z,96963.38
2023-11-26T00:14:02.094Z,96968.42
2023-11-26T00:16:39.233Z,96977.18
2023-11-26T00:19:11.407Z,96983.16
2023-11-26T00:21:43.166Z,96985.66
2023-11-26T00:24:15.013Z,96991.34
2023-11-26T00:26:46.971Z,96990.22
2023-11-26T00:29:19.674Z,96991.61
2023-11-26T00:31:53.305Z,96995.86
2023-11-26T00:34:25.207Z,97000.67
2023-11-26T00:36:58.075Z,97002.88
2023-11-26T00:39:31.496Z,96999.42
2023-11-26T00:42:03.333Z,97004.45
2023-11-26T00:44:35.394Z,97006.49
2023-11-26T00:47:08.333Z,97006.17
2023-11-26T00:49:40.686Z,97004.78
2023-11-26T00:52:12.795Z,97005.15
2023-11-26T00:54:44.608Z,97004.27
2023-11-26T00:57:17.008Z,97007.52
2023-11-26T00:59:48.889Z,97012.56
2023-11-26T01:02:23.321Z,97013.05
2023-11-26T01:04:55.375Z,97018.59
2023-11-26T01:07:31.325Z,97023.64
2023-11-26T01:10:04.121Z,97025.79
2023-11-26T01:12:36.019Z,97026.05
2023-11-26T01:15:09.845Z,97029.48
2023-11-26T01:17:42.168Z,97028.86
2023-11-26T01:20:14.862Z,97032.77
2023-11-26T01:22:46.782Z,97037.05
2023-11-26T01:25:18.890Z,97035.67
2023-11-26T01:27:50.678Z,97031.21
2023-11-26T01:30:23.214Z,97033.33
2023-11-26T01:32:55.300Z,97036.06
2023-11-26T01:35:27.155Z,97040.53
2023-11-26T01:37:59.096Z,97043.55
2023-11-26T01:40:31.338Z,97043.01
2023-11-26T01:43:04.096Z,97046.65
2023-11-26T01:45:35.946Z,97048.52
2023-11-26T01:48:08.449Z,97049.41
2023-11-26T01:50:40.295Z,97054.16
2023-11-26T01:53:12.179Z,97053.14
2023-11-26T01:55:44.263Z,97057.83
2023-11-26T01:58:17.017Z,97062.09
2023-11-26T02:00:48.874Z,97063.70
2023-11-26T02:03:20.897Z,97070.62
2023-11-26T02:05:53.761Z,97070.85
2023-11-26T02:08:26.229Z,97069.96
2023-11-26T02:10:58.138Z,97068.48
2023-11-26T02:13:30.448Z,97067.89
2023-11-26T02:16:02.392Z,97065.17
2023-11-26T02:18:34.175Z,97065.90
2023-11-26T02:21:09.058Z,97062.90
2023-11-26T02:23:41.517Z,97066.74
2023-11-26T02:26:13.445Z,97065.02
2023-11-26T02:28:45.974Z,97068.02
2023-11-26T02:31:18.179Z,97069.98
2023-11-26T02:33:55.034Z,97076.36
2023-11-26T02:36:28.600Z,97078.31
2023-11-26T02:39:00.535Z,97081.89
2023-11-26T02:41:32.538Z,97082.23
2023-11-26T02:44:04.768Z,97083.79
2023-11-26T02:46:38.125Z,97086.67
2023-11-26T02:49:10.168Z,97088.29
2023-11-26T02:51:42.063Z,97092.41
2023-11-26T02:54:13.844Z,97095.32
2023-11-26T02:56:46.756Z,97100.86
2023-11-26T02:59:19.450Z,97107.50
2023-11-26T03:01:54.633Z,97110.09
2023-11-26T03:04:26.655Z,97111.28
2023-11-26T03:06:59.986Z,97111.11
2023-11-26T03:09:42.291Z,97117.08
2023-11-26T03:12:28.021Z,97116.91
2023-11-26T03:14:59.776Z,97117.20
2023-11-26T03:17:31.993Z,97113.38
2023-11-26T03:20:04.166Z,97114.10
2023-11-26T03:22:37.955Z,97119.43
2023-11-26T03:25:11.141Z,97119.99
2023-11-26T03:27:43.116Z,97126.54
2023-11-26T03:30:15.229Z,97129.89
2023-11-26T03:32:47.410Z,97130.68
2023-11-26T03:35:19.473Z,97130.66
2023-11-26T03:37:51.469Z,97133.66
2023-11-26T03:40:25.009Z,97136.55
2023-11-26T03:42:56.906Z,97139.14
2023-11-26T03:45:28.765Z,97142.16
2023-11-26T03:48:01.697Z,97139.75
2023-11-26T03:50:33.940Z,97146.23
2023-11-26T03:53:05.968Z,97148.10
2023-11-26T03:55:39.283Z,97142.89
2023-11-26T03:58:11.693Z,97142.81
2023-11-26T04:00:43.754Z,97145.61
2023-11-26T04:03:16.180Z,97148.59
2023-11-26T04:05:48.620Z,97146.61
2023-11-26T04:08:21.103Z,97152.43
2023-11-26T04:10:53.262Z,97156.65
2023-11-26T04:13:26.311Z,97156.13
2023-11-26T04:15:59.983Z,97163.15
2023-11-26T04:18:32.594Z,97164.34
2023-11-26T04:21:08.477Z,97165.92
2023-11-26T04:23:40.721Z,97165.52
2023-11-26T04:26:12.737Z,97171.91
2023-11-26T04:28:44.813Z,97179.14
2023-11-26T04:31:17.627Z,97183.72
2023-11-26T04:33:49.727Z,97183.20
2023-11-26T04:36:22.535Z,97185.64
2023-11-26T04:38:55.038Z,97186.42
2023-11-26T04:41:27.609Z,97190.96
2023-11-26T04:43:59.905Z,97187.11
2023-11-26T04:46:32.047Z,97191.40
2023-11-26T04:49:04.960Z,97196.91
2023-11-26T04:51:40.297Z,97204.42
2023-11-26T04:54:13.866Z,97208.81
2023-11-26T04:56:45.884Z,97211.88
2023-11-26T04:59:18.930Z,97212.19
2023-11-26T05:01:55.666Z,97220.73
2023-11-26T05:04:28.004Z,97220.15
2023-11-26T05:07:00.083Z,97222.38
2023-11-26T05:09:32.520Z,97231.52
2023-11-26T05:12:06.326Z,97234.89
2023-11-26T05:14:38.518Z,97235.36
2023-11-26T05:17:11.476Z,97242.44
2023-11-26T05:19:43.763Z,97243.34
2023-11-26T05:22:15.799Z,97244.92
2023-11-26T05:24:47.961Z,97252.70
2023-11-26T05:27:23.039Z,97251.50
2023-11-26T05:29:55.211Z,97254.80
2023-11-26T05:32:27.257Z,97260.42
2023-11-26T05:35:00.455Z,97266.75
2023-11-26T05:37:32.723Z,97279.07
2023-11-26T05:40:06.339Z,97290.80
2023-11-26T05:42:38.729Z,97293.86
2023-11-26T05:45:12.380Z,97293.38
2023-11-26T05:47:44.619Z,97295.85
2023-11-26T05:50:17.367Z,97293.14
2023-11-26T05:52:49.739Z,97292.17
2023-11-26T05:55:23.265Z,97298.19
2023-11-26T05:57:55.833Z,97301.17
2023-11-26T06:00:27.937Z,97311.45
2023-11-26T06:03:00.087Z,97314.33
2023-11-26T06:05:32.397Z,97319.51
2023-11-26T06:08:04.870Z,97328.53
2023-11-26T06:10:37.331Z,97323.95
2023-11-26T06:13:09.423Z,97328.20
2023-11-26T06:15:41.805Z,97334.70
2023-11-26T06:18:13.905Z,97335.21
2023-11-26T06:20:46.086Z,97337.86
2023-11-26T06:23:18.251Z,97339.88
2023-11-26T06:25:50.258Z,97346.71
2023-11-26T06:28:22.369Z,97348.73
2023-11-26T06:30:54.604Z,97349.70
2023-11-26T06:33:27.041Z,97353.67
2023-11-26T06:35:59.175Z,97355.52
2023-11-26T06:38:31.950Z,97357.33
2023-11-26T06:41:04.535Z,97357.27
2023-11-26T06:43:36.514Z,97362.88
2023-11-26T06:46:18.078Z,97366.33
2023-11-26T06:48:51.269Z,97372.45
2023-11-26T06:51:24.216Z,97373.81
2023-11-26T06:53:56.519Z,97380.40
2023-11-26T06:56:28.572Z,97383.39
2023-11-26T06:59:00.528Z,97386.13
2023-11-26T07:01:32.921Z,97387.52
2023-11-26T07:04:05.385Z,97385.47
2023-11-26T07:06:37.565Z,97382.48
2023-11-26T07:09:10.440Z,97383.89
2023-11-26T07:11:42.499Z,97384.69
2023-11-26T07:14:14.626Z,97388.54
2023-11-26T07:16:47.370Z,97391.33
2023-11-26T07:19:21.473Z,97399.92
2023-11-26T07:21:53.863Z,97405.91
2023-11-26T07:24:26.133Z,97412.42
2023-11-26T07:26:58.385Z,97408.52
2023-11-26T07:29:30.569Z,97410.80
2023-11-26T07:32:02.827Z,97416.83
2023-11-26T07:34:34.831Z,97418.19
2023-11-26T07:37:07.410Z,97420.83
2023-11-26T07:39:39.529Z,97418.60
2023-11-26T07:42:11.822Z,97416.05
2023-11-26T07:44:44.000Z,97425.86
2023-11-26T07:47:16.025Z,97415.45
2023-11-26T07:49:48.060Z,97415.05
2023-11-26T07:52:20.166Z,97412.13
2023-11-26T07:54:52.290Z,97414.26
2023-11-26T07:57:24.411Z,97415.90
2023-11-26T07:59:56.435Z,97420.62
2023-11-26T08:02:30.687Z,97420.63
2023-11-26T08:05:04.378Z,97423.90
2023-11-26T08:07:37.887Z,97427.00
2023-11-26T08:10:19.595Z,97421.86
2023-11-26T08:12:51.888Z,97412.21
2023-11-26T08:15:25.438Z,97400.42
2023-11-26T08:17:58.322Z,97410.90
2023-11-26T08:20:30.881Z,97403.69
2023-11-26T08:23:04.013Z,97403.13
2023-11-26T08:25:38.092Z,97406.14
2023-11-26T08:28:10.572Z,97420.50
2023-11-26T08:30:45.775Z,97425.51
2023-11-26T08:33:22.132Z,97420.38
2023-11-26T08:36:00.940Z,97413.32
2023-11-26T08:38:35.642Z,97416.33
2023-11-26T08:41:11.860Z,97407.25
2023-11-26T08:43:46.397Z,97404.86
2023-11-26T08:46:20.793Z,97402.70
2023-11-26T08:48:54.458Z,97409.41
2023-11-26T08:51:28.862Z,97399.80
2023-11-26T08:54:03.864Z,97405.54
2023-11-26T08:56:36.353Z,97354.26
2023-11-26T08:59:08.539Z,97368.34
2023-11-26T09:01:40.967Z,97384.14
2023-11-26T09:04:13.480Z,97370.92
2023-11-26T09:06:45.620Z,97365.38
2023-11-26T09:09:17.789Z,97363.02
2023-11-26T09:11:50.372Z,97375.11
2023-11-26T09:14:22.416Z,97398.82
2023-11-26T09:16:54.506Z,97399.17
2023-11-26T09:19:26.838Z,97384.45
2023-11-26T09:22:03.597Z,97380.84
2023-11-26T09:24:36.467Z,97378.65
2023-11-26T09:27:10.222Z,97360.77
2023-11-26T09:29:42.241Z,97349.26
2023-11-26T09:32:14.592Z,97348.46
2023-11-26T09:34:46.742Z,97354.17
2023-11-26T09:37:19.619Z,97326.52
2023-11-26T09:39:51.614Z,97300.81
2023-11-26T09:42:25.791Z,97316.59
2023-11-26T09:44:58.103Z,97301.52
2023-11-26T09:47:30.923Z,97294.67
2023-11-26T09:50:04.010Z,97319.89
2023-11-26T09:52:38.256Z,97325.63
2023-11-26T09:55:11.787Z,97302.74
2023-11-26T09:57:44.071Z,97330.57
2023-11-26T10:00:18.535Z,97353.50
2023-11-26T10:03:03.682Z,97345.03
2023-11-26T10:05:37.116Z,97310.09
2023-11-26T10:08:27.335Z,97286.58
2023-11-26T10:11:00.138Z,97280.44
2023-11-26T10:13:41.041Z,97252.56
2023-11-26T10:16:14.070Z,97269.29
2023-11-26T10:18:46.548Z,97300.61
2023-11-26T10:21:18.977Z,97293.40
2023-11-26T10:23:51.164Z,97265.91
2023-11-26T10:26:27.458Z,97264.59
2023-11-26T10:29:05.091Z,97295.92
2023-11-26T10:31:37.769Z,97285.17
2023-11-26T10:34:15.321Z,97288.86
2023-11-26T10:36:47.537Z,97308.77
2023-11-26T10:39:19.660Z,97323.86
2023-11-26T10:41:52.628Z,97343.26
2023-11-26T10:44:26.115Z,97346.77
2023-11-26T10:47:02.484Z,97338.10
2023-11-26T10:49:41.840Z,97351.75
2023-11-26T10:52:25.178Z,97342.04
2023-11-26T10:55:04.935Z,97363.02
2023-11-26T10:57:42.214Z,97377.58
2023-11-26T11:00:20.793Z,97382.02
2023-11-26T11:02:53.418Z,97399.04
2023-11-26T11:05:26.980Z,97378.08
2023-11-26T11:08:00.779Z,97393.57
2023-11-26T11:10:41.550Z,97396.45
2023-11-26T11:13:14.586Z,97394.09
2023-11-26T11:15:47.490Z,97389.31
2023-11-26T11:18:43.334Z,97386.45
2023-11-26T11:21:17.727Z,97401.14
2023-11-26T11:23:51.830Z,97398.23
2023-11-26T11:26:26.385Z,97393.84
2023-11-26T11:29:01.524Z,97400.93
2023-11-26T11:32:02.065Z,97404.08
2023-11-26T11:34:34.781Z,97422.52
2023-11-26T11:37:09.497Z,97422.02
2023-11-26T11:39:51.388Z,97423.02
2023-11-26T11:42:28.142Z,97428.20
2023-11-26T11:45:30.376Z,97419.50
2023-11-26T11:48:02.503Z,97404.88
2023-11-26T11:50:34.590Z,97399.66
2023-11-26T11:53:07.775Z,97396.59
2023-11-26T11:55:59.317Z,97398.17
2023-11-26T11:58:31.508Z,97398.13
2023-11-26T12:01:05.148Z,97396.70
2023-11-26T12:03:39.394Z,97399.92
2023-11-26T12:06:17.354Z,97416.86
2023-11-26T12:08:57.474Z,97403.89
2023-11-26T12:11:30.117Z,97404.56
2023-11-26T12:14:02.159Z,97421.10
2023-11-26T12:16:34.292Z,97433.15
2023-11-26T12:19:08.210Z,97440.23
2023-11-26T12:21:40.398Z,97439.17
2023-11-26T12:24:23.961Z,97446.09
2023-11-26T12:26:56.250Z,97453.26
2023-11-26T12:29:28.781Z,97450.97
2023-11-26T12:32:06.462Z,97453.20
2023-11-26T12:34:40.050Z,97455.99
2023-11-26T12:37:13.180Z,97461.29
2023-11-26T12:39:46.546Z,97466.15
2023-11-26T12:42:19.528Z,97471.70
2023-11-26T12:44:51.616Z,97471.70
2023-11-26T12:47:24.938Z,97473.64
2023-11-26T12:50:02.381Z,97478.73
2023-11-26T12:52:37.614Z,97470.86
2023-11-26T12:55:11.971Z,97467.78
2023-11-26T12:57:44.985Z,97473.53
2023-11-26T13:00:18.190Z,97477.09
2023-11-26T13:03:07.323Z,97481.91
2023-11-26T13:05:40.651Z,97489.23
2023-11-26T13:08:23.950Z,97498.94
2023-11-26T13:10:58.791Z,97507.58
2023-11-26T13:13:33.488Z,97511.17
2023-11-26T13:16:09.031Z,97516.30
2023-11-26T13:18:41.902Z,97523.08
2023-11-26T13:21:15.075Z,97521.50
2023-11-26T13:23:47.355Z,97532.50
2023-11-26T13:26:19.409Z,97540.31
2023-11-26T13:28:51.795Z,97546.89
2023-11-26T13:31:24.664Z,97546.85
2023-11-26T13:33:56.754Z,97548.05
2023-11-26T13:36:29.008Z,97547.75
2023-11-26T13:39:01.601Z,97549.62
2023-11-26T13:41:33.723Z,97551.19
2023-11-26T13:44:06.332Z,97550.70
2023-11-26T13:46:38.410Z,97554.83
2023-11-26T13:49:13.088Z,97555.95
2023-11-26T13:51:45.627Z,97564.41
2023-11-26T13:54:17.844Z,97562.89
2023-11-26T13:56:49.890Z,97565.02
2023-11-26T13:59:22.818Z,97569.20
2023-11-26T14:01:55.654Z,97573.98
2023-11-26T14:04:27.950Z,97579.84
2023-11-26T14:07:00.258Z,97578.90
2023-11-26T14:09:32.540Z,97588.02
2023-11-26T14:12:04.764Z,97586.82
2023-11-26T14:14:36.816Z,97588.33
2023-11-26T14:17:12.002Z,97589.62
2023-11-26T14:19:44.032Z,97598.83
2023-11-26T14:22:16.115Z,97609.05
2023-11-26T14:24:48.475Z,97611.83
2023-11-26T14:27:20.814Z,97613.42
2023-11-26T14:29:53.257Z,97616.77
2023-11-26T14:32:25.638Z,97617.95
2023-11-26T14:34:58.074Z,97620.73
2023-11-26T14:37:30.228Z,97621.95
2023-11-26T14:40:11.221Z,97628.98
2023-11-26T14:42:44.593Z,97626.55
2023-11-26T14:45:17.822Z,97626.08
2023-11-26T14:47:50.115Z,97625.40
2023-11-26T14:50:22.771Z,97622.70
2023-11-26T14:52:54.849Z,97623.48
2023-11-26T14:55:27.347Z,97623.98
2023-11-26T14:57:59.586Z,97627.77
2023-11-26T15:00:31.962Z,97628.08
2023-11-26T15:03:04.626Z,97628.49
2023-11-26T15:05:37.089Z,97631.67
2023-11-26T15:08:09.466Z,97630.02
2023-11-26T15:10:41.611Z,97634.77
2023-11-26T15:13:13.661Z,97633.77
2023-11-26T15:15:45.893Z,97637.70
2023-11-26T15:18:19.469Z,97636.23
2023-11-26T15:20:52.048Z,97639.56
2023-11-26T15:23:24.715Z,97635.39
2023-11-26T15:25:57.037Z,97637.66
2023-11-26T15:28:29.833Z,97636.64
2023-11-26T15:31:01.959Z,97635.84
2023-11-26T15:33:34.272Z,97635.52
2023-11-26T15:36:08.776Z,97635.58
2023-11-26T15:38:40.879Z,97633.25
2023-11-26T15:41:20.179Z,97629.66
2023-11-26T15:43:52.372Z,97627.23
2023-11-26T15:46:27.016Z,97630.63
2023-11-26T15:48:59.564Z,97625.22
2023-11-26T15:51:32.115Z,97630.71
2023-11-26T15:54:05.418Z,97632.21
2023-11-26T15:56:37.652Z,97636.38
2023-11-26T15:59:10.812Z,97640.73
2023-11-26T16:01:43.239Z,97641.73
2023-11-26T16:04:15.358Z,97644.84
2023-11-26T16:06:47.461Z,97645.48
2023-11-26T16:09:20.107Z,97648.74
2023-11-26T16:11:52.178Z,97649.05
2023-11-26T16:14:24.148Z,97647.41
2023-11-26T16:17:05.071Z,97649.15
2023-11-26T16:19:51.121Z,97651.66
2023-11-26T16:22:24.176Z,97654.77
2023-11-26T16:24:56.675Z,97659.65
2023-11-26T16:27:28.837Z,97658.41
2023-11-26T16:30:03.515Z,97660.52
2023-11-26T16:32:36.445Z,97661.00
2023-11-26T16:35:10.243Z,97667.36
2023-11-26T16:37:43.648Z,97667.56
2023-11-26T16:40:17.044Z,97669.95
2023-11-26T16:42:49.080Z,97676.02
2023-11-26T16:45:21.188Z,97679.15
2023-11-26T16:47:54.864Z,97675.30
2023-11-26T16:50:27.017Z,97675.35
2023-11-26T16:52:59.416Z,97677.92
2023-11-26T16:55:32.502Z,97677.14
2023-11-26T16:58:04.604Z,97673.16
2023-11-26T17:00:37.141Z,97677.23
2023-11-26T17:03:10.820Z,97677.15
2023-11-26T17:05:43.606Z,97673.85
2023-11-26T17:08:15.871Z,97671.92
2023-11-26T17:10:48.539Z,97671.01
2023-11-26T17:13:20.645Z,97669.35
2023-11-26T17:15:52.976Z,97664.58
2023-11-26T17:18:25.497Z,97662.95
2023-11-26T17:20:57.720Z,97664.52
2023-11-26T17:23:29.756Z,97667.80
2023-11-26T17:26:02.167Z,97666.11
2023-11-26T17:28:34.984Z,97671.33
2023-11-26T17:31:07.539Z,97672.23
2023-11-26T17:33:39.825Z,97673.68
2023-11-26T17:36:13.713Z,97675.17
2023-11-26T17:38:46.318Z,97675.61
2023-11-26T17:41:19.107Z,97673.52
2023-11-26T17:43:53.420Z,97673.69
2023-11-26T17:46:27.193Z,97677.11
2023-11-26T17:48:59.392Z,97680.70
2023-11-26T17:51:31.874Z,97681.55
2023-11-26T17:54:04.942Z,97685.12
2023-11-26T17:56:37.339Z,97683.56
2023-11-26T17:59:09.340Z,97682.71
2023-11-26T18:01:41.486Z,97683.67
2023-11-26T18:04:13.669Z,97688.51
2023-11-26T18:06:46.303Z,97690.09
2023-11-26T18:09:19.001Z,97687.23
2023-11-26T18:11:52.337Z,97688.55
2023-11-26T18:14:24.407Z,97685.57
2023-11-26T18:16:56.633Z,97689.73
2023-11-26T18:19:28.819Z,97689.91
2023-11-26T18:22:01.198Z,97688.07
2023-11-26T18:24:33.764Z,97692.71
2023-11-26T18:27:06.633Z,97696.11
2023-11-26T18:29:40.478Z,97699.02
2023-11-26T18:32:13.318Z,97702.31
2023-11-26T18:34:47.354Z,97697.73
2023-11-26T18:37:22.233Z,97698.30
2023-11-26T18:39:54.698Z,97703.92
2023-11-26T18:42:27.341Z,97707.08
2023-11-26T18:44:59.408Z,97708.97
2023-11-26T18:47:31.491Z,97711.73
2023-11-26T18:50:03.953Z,97710.48
2023-11-26T18:52:36.041Z,97711.51
2023-11-26T18:55:09.448Z,97711.68
2023-11-26T18:57:41.522Z,97711.65
2023-11-26T19:00:16.108Z,97715.61
2023-11-26T19:02:48.138Z,97717.67
2023-11-26T19:05:20.308Z,97720.91
2023-11-26T19:07:52.486Z,97726.41
2023-11-26T19:10:24.600Z,97727.66
2023-11-26T19:12:56.639Z,97728.84
2023-11-26T19:15:28.893Z,97727.73
2023-11-26T19:18:01.094Z,97725.45
2023-11-26T19:20:33.182Z,97721.46
2023-11-26T19:23:05.312Z,97721.31
2023-11-26T19:25:37.664Z,97724.34
2023-11-26T19:28:09.763Z,97721.31
2023-11-26T19:30:41.974Z,97724.33
2023-11-26T19:33:14.303Z,97727.77
2023-11-26T19:35:47.636Z,97725.34
2023-11-26T19:38:19.646Z,97722.98
2023-11-26T19:40:51.717Z,97717.01
2023-11-26T19:43:23.759Z,97714.99
2023-11-26T19:45:55.886Z,97716.10
2023-11-26T19:48:27.978Z,97716.36
2023-11-26T19:51:00.085Z,97714.39
2023-11-26T19:53:34.147Z,97720.55
2023-11-26T19:56:07.860Z,97723.04
2023-11-26T19:58:40.850Z,97723.77
2023-11-26T20:01:15.038Z,97728.77
2023-11-26T20:03:47.559Z,97729.89
2023-11-26T20:06:19.798Z,97730.79
2023-11-26T20:08:55.341Z,97730.02
2023-11-26T20:11:27.965Z,97725.23
2023-11-26T20:14:00.069Z,97725.53
2023-11-26T20:16:32.520Z,97725.02
2023-11-26T20:19:05.405Z,97721.52
2023-11-26T20:21:38.520Z,97724.04
2023-11-26T20:24:17.550Z,97725.30
2023-11-26T20:26:49.643Z,97725.34
2023-11-26T20:29:28.505Z,97725.11
2023-11-26T20:32:00.632Z,97722.11
2023-11-26T20:34:32.659Z,97714.21
2023-11-26T20:37:05.481Z,97708.63
2023-11-26T20:39:37.614Z,97699.79
2023-11-26T20:42:10.036Z,97700.39
2023-11-26T20:44:47.536Z,97698.42
2023-11-26T20:47:20.064Z,97697.23
2023-11-26T20:49:52.274Z,97696.70
2023-11-26T20:52:24.360Z,97689.48
2023-11-26T20:54:56.410Z,97686.97
2023-11-26T20:57:28.605Z,97681.73
2023-11-26T21:00:01.120Z,97685.16
2023-11-26T21:02:33.440Z,97689.30
2023-11-26T21:05:08.050Z,97690.67
2023-11-26T21:07:41.033Z,97685.91
2023-11-26T21:10:13.822Z,97689.54
2023-11-26T21:12:45.993Z,97686.35
2023-11-26T21:15:21.393Z,97688.79
2023-11-26T21:17:53.802Z,97683.02
2023-11-26T21:20:25.811Z,97684.51
2023-11-26T21:22:58.242Z,97683.63
2023-11-26T21:25:30.221Z,97679.52
2023-11-26T21:28:02.338Z,97680.23
2023-11-26T21:30:34.524Z,97676.45
2023-11-26T21:33:06.960Z,97681.08
2023-11-26T21:35:39.778Z,97678.51
2023-11-26T21:38:11.971Z,97677.20
2023-11-26T21:40:53.165Z,97675.61
2023-11-26T21:43:29.575Z,97675.34
2023-11-26T21:46:02.368Z,97672.54
2023-11-26T21:48:34.598Z,97671.77
2023-11-26T21:51:07.527Z,97671.54
2023-11-26T21:53:39.838Z,97668.10
2023-11-26T21:56:12.913Z,97666.98
2023-11-26T21:58:44.949Z,97671.75
2023-11-26T22:01:18.862Z,97670.55
2023-11-26T22:03:52.052Z,97668.48
2023-11-26T22:06:24.613Z,97666.14
2023-11-26T22:08:57.157Z,97659.17
2023-11-26T22:11:29.378Z,97658.81
2023-11-26T22:14:01.883Z,97659.45
2023-11-26T22:16:34.153Z,97653.91
2023-11-26T22:19:07.259Z,97658.07
2023-11-26T22:21:40.061Z,97654.81
2023-11-26T22:24:12.191Z,97652.89
2023-11-26T22:26:44.710Z,97654.95
2023-11-26T22:29:16.757Z,97662.24
2023-11-26T22:31:49.266Z,97663.14
2023-11-26T22:34:21.463Z,97659.29
2023-11-26T22:36:54.237Z,97663.89
2023-11-26T22:39:26.720Z,97659.68
2023-11-26T22:41:58.866Z,97661.84
2023-11-26T22:44:31.060Z,97661.37
2023-11-26T22:47:03.420Z,97662.42
2023-11-26T22:49:36.094Z,97663.56
2023-11-26T22:52:09.942Z,97662.84
2023-11-26T22:54:42.061Z,97661.93
2023-11-26T22:57:14.209Z,97662.58
2023-11-26T22:59:46.236Z,97663.20
2023-11-26T23:02:18.632Z,97668.92
2023-11-26T23:04:50.841Z,97673.61
2023-11-26T23:07:22.857Z,97673.71
2023-11-26T23:09:54.898Z,97678.81
2023-11-26T23:12:26.890Z,97678.88
2023-11-26T23:15:00.255Z,97676.69
2023-11-26T23:17:32.433Z,97669.31
2023-11-26T23:20:07.129Z,97667.81
2023-11-26T23:22:39.287Z,97661.41
2023-11-26T23:25:12.638Z,97657.41
2023-11-26T23:27:44.957Z,97652.48
2023-11-26T23:30:18.489Z,97649.80
2023-11-26T23:32:50.602Z,97648.61
2023-11-26T23:35:22.630Z,97650.21
2023-11-26T23:37:54.834Z,97645.86
2023-11-26T23:40:27.504Z,97644.70
2023-11-26T23:42:59.599Z,97643.29
2023-11-26T23:45:31.775Z,97648.45
2023-11-26T23:48:03.833Z,97645.29
2023-11-26T23:50:35.939Z,97648.98
2023-11-26T23:53:08.314Z,97645.61
2023-11-26T23:55:40.699Z,97640.05
2023-11-26T23:58:12.915Z,97640.44
